sensor_id;sensor_type;location;lat;lon;timestamp;P1;durP1;ratioP1;P2;durP2;ratioP2
40074;SDS011;26529;51.530;11.754;2023-01-05T00:00:23;47.92;;;25.42;;
40074;SDS011;26529;51.530;11.754;2023-01-05T00:02:49;44.55;;;23.48;;
40074;SDS011;26529;51.530;11.754;2023-01-05T00:05:14;48.42;;;24.55;;
40074;SDS011;26529;51.530;11.754;2023-01-05T00:07:39;43.92;;;24.20;;
40074;SDS011;26529;51.530;11.754;2023-01-05T00:10:05;44.63;;;24.02;;
40074;SDS011;26529;51.530;11.754;2023-01-05T00:12:51;51.50;;;24.88;;
40074;SDS011;26529;51.530;11.754;2023-01-05T00:15:35;49.72;;;24.13;;
40074;SDS011;26529;51.530;11.754;2023-01-05T00:18:19;54.05;;;26.02;;
40074;SDS011;26529;51.530;11.754;2023-01-05T00:21:07;49.30;;;26.67;;
40074;SDS011;26529;51.530;11.754;2023-01-05T00:23:57;62.65;;;28.48;;
40074;SDS011;26529;51.530;11.754;2023-01-05T00:26:23;80.50;;;34.17;;
40074;SDS011;26529;51.530;11.754;2023-01-05T00:28:48;93.00;;;35.70;;
40074;SDS011;26529;51.530;11.754;2023-01-05T00:31:14;77.22;;;34.10;;
40074;SDS011;26529;51.530;11.754;2023-01-05T00:33:39;99.97;;;37.35;;
40074;SDS011;26529;51.530;11.754;2023-01-05T00:36:09;91.43;;;34.80;;
40074;SDS011;26529;51.530;11.754;2023-01-05T00:38:34;89.63;;;36.08;;
40074;SDS011;26529;51.530;11.754;2023-01-05T00:41:00;103.40;;;38.65;;
40074;SDS011;26529;51.530;11.754;2023-01-05T00:43:25;93.15;;;37.28;;
40074;SDS011;26529;51.530;11.754;2023-01-05T00:45:51;82.90;;;34.50;;
40074;SDS011;26529;51.530;11.754;2023-01-05T00:48:16;88.07;;;37.80;;
40074;SDS011;26529;51.530;11.754;2023-01-05T00:50:41;92.32;;;36.45;;
40074;SDS011;26529;51.530;11.754;2023-01-05T00:53:07;90.13;;;37.22;;
40074;SDS011;26529;51.530;11.754;2023-01-05T00:55:32;84.32;;;35.28;;
40074;SDS011;26529;51.530;11.754;2023-01-05T00:57:58;92.70;;;36.65;;
40074;SDS011;26529;51.530;11.754;2023-01-05T01:00:23;81.80;;;34.80;;
40074;SDS011;26529;51.530;11.754;2023-01-05T01:02:49;82.22;;;35.50;;
40074;SDS011;26529;51.530;11.754;2023-01-05T01:05:17;84.47;;;35.78;;
40074;SDS011;26529;51.530;11.754;2023-01-05T01:07:42;82.03;;;35.25;;
40074;SDS011;26529;51.530;11.754;2023-01-05T01:10:09;86.20;;;34.67;;
40074;SDS011;26529;51.530;11.754;2023-01-05T01:12:35;86.82;;;33.85;;
40074;SDS011;26529;51.530;11.754;2023-01-05T01:15:01;78.80;;;34.28;;
40074;SDS011;26529;51.530;11.754;2023-01-05T01:17:26;79.70;;;32.72;;
40074;SDS011;26529;51.530;11.754;2023-01-05T01:19:52;77.82;;;31.15;;
40074;SDS011;26529;51.530;11.754;2023-01-05T01:22:17;81.07;;;32.35;;
40074;SDS011;26529;51.530;11.754;2023-01-05T01:24:43;79.15;;;32.17;;
40074;SDS011;26529;51.530;11.754;2023-01-05T01:27:10;82.55;;;32.25;;
40074;SDS011;26529;51.530;11.754;2023-01-05T01:29:35;77.20;;;30.75;;
40074;SDS011;26529;51.530;11.754;2023-01-05T01:32:01;73.35;;;32.33;;
40074;SDS011;26529;51.530;11.754;2023-01-05T01:34:26;71.13;;;30.75;;
40074;SDS011;26529;51.530;11.754;2023-01-05T01:36:53;63.85;;;28.83;;
40074;SDS011;26529;51.530;11.754;2023-01-05T01:39:22;70.32;;;29.85;;
40074;SDS011;26529;51.530;11.754;2023-01-05T01:41:53;68.32;;;27.48;;
40074;SDS011;26529;51.530;11.754;2023-01-05T01:47:39;63.53;;;28.40;;
40074;SDS011;26529;51.530;11.754;2023-01-05T01:52:43;64.45;;;27.48;;
40074;SDS011;26529;51.530;11.754;2023-01-05T01:55:11;62.88;;;25.70;;
40074;SDS011;26529;51.530;11.754;2023-01-05T01:57:38;60.72;;;26.70;;
40074;SDS011;26529;51.530;11.754;2023-01-05T02:00:05;63.75;;;27.13;;
40074;SDS011;26529;51.530;11.754;2023-01-05T02:02:42;60.35;;;25.08;;
40074;SDS011;26529;51.530;11.754;2023-01-05T02:05:10;55.00;;;25.05;;
40074;SDS011;26529;51.530;11.754;2023-01-05T02:07:41;63.30;;;26.17;;
40074;SDS011;26529;51.530;11.754;2023-01-05T02:10:10;55.38;;;25.05;;
40074;SDS011;26529;51.530;11.754;2023-01-05T02:15:23;61.22;;;25.27;;
40074;SDS011;26529;51.530;11.754;2023-01-05T02:18:08;60.65;;;25.08;;
40074;SDS011;26529;51.530;11.754;2023-01-05T02:20:50;58.20;;;23.95;;
40074;SDS011;26529;51.530;11.754;2023-01-05T02:29:01;48.88;;;22.23;;
40074;SDS011;26529;51.530;11.754;2023-01-05T02:31:47;51.28;;;22.15;;
40074;SDS011;26529;51.530;11.754;2023-01-05T02:37:14;43.15;;;22.00;;
40074;SDS011;26529;51.530;11.754;2023-01-05T02:39:55;48.00;;;22.52;;
40074;SDS011;26529;51.530;11.754;2023-01-05T02:42:25;57.00;;;23.45;;
40074;SDS011;26529;51.530;11.754;2023-01-05T02:44:53;52.90;;;20.85;;
40074;SDS011;26529;51.530;11.754;2023-01-05T02:49:53;46.10;;;20.83;;
40074;SDS011;26529;51.530;11.754;2023-01-05T02:52:24;47.25;;;21.42;;
40074;SDS011;26529;51.530;11.754;2023-01-05T02:54:52;49.25;;;20.48;;
40074;SDS011;26529;51.530;11.754;2023-01-05T02:57:24;46.15;;;20.80;;
40074;SDS011;26529;51.530;11.754;2023-01-05T03:00:17;50.88;;;21.25;;
40074;SDS011;26529;51.530;11.754;2023-01-05T03:02:49;43.88;;;19.75;;
40074;SDS011;26529;51.530;11.754;2023-01-05T03:05:24;43.13;;;18.75;;
40074;SDS011;26529;51.530;11.754;2023-01-05T03:07:56;41.45;;;20.13;;
40074;SDS011;26529;51.530;11.754;2023-01-05T03:10:41;42.45;;;20.13;;
40074;SDS011;26529;51.530;11.754;2023-01-05T03:13:33;41.00;;;19.20;;
40074;SDS011;26529;51.530;11.754;2023-01-05T03:16:08;43.25;;;18.25;;
40074;SDS011;26529;51.530;11.754;2023-01-05T03:18:36;40.75;;;19.13;;
40074;SDS011;26529;51.530;11.754;2023-01-05T03:21:26;41.95;;;18.35;;
40074;SDS011;26529;51.530;11.754;2023-01-05T03:23:53;37.13;;;18.02;;
40074;SDS011;26529;51.530;11.754;2023-01-05T03:26:41;41.75;;;18.15;;
40074;SDS011;26529;51.530;11.754;2023-01-05T03:29:26;44.50;;;18.17;;
40074;SDS011;26529;51.530;11.754;2023-01-05T03:32:15;42.03;;;17.58;;
40074;SDS011;26529;51.530;11.754;2023-01-05T03:35:03;36.67;;;16.67;;
40074;SDS011;26529;51.530;11.754;2023-01-05T03:40:36;34.08;;;16.88;;
40074;SDS011;26529;51.530;11.754;2023-01-05T03:43:04;38.85;;;17.65;;
40074;SDS011;26529;51.530;11.754;2023-01-05T03:45:42;35.13;;;15.95;;
40074;SDS011;26529;51.530;11.754;2023-01-05T03:48:16;43.53;;;17.65;;
40074;SDS011;26529;51.530;11.754;2023-01-05T03:50:41;39.70;;;18.65;;
40074;SDS011;26529;51.530;11.754;2023-01-05T03:53:11;36.42;;;17.33;;
40074;SDS011;26529;51.530;11.754;2023-01-05T03:55:37;32.97;;;16.30;;
40074;SDS011;26529;51.530;11.754;2023-01-05T03:58:03;35.85;;;16.40;;
40074;SDS011;26529;51.530;11.754;2023-01-05T04:00:29;35.20;;;15.43;;
40074;SDS011;26529;51.530;11.754;2023-01-05T04:03:02;32.38;;;14.55;;
40074;SDS011;26529;51.530;11.754;2023-01-05T04:05:27;37.30;;;15.52;;
40074;SDS011;26529;51.530;11.754;2023-01-05T04:07:54;36.20;;;16.02;;
40074;SDS011;26529;51.530;11.754;2023-01-05T04:10:19;32.08;;;15.25;;
40074;SDS011;26529;51.530;11.754;2023-01-05T04:12:46;32.60;;;15.05;;
40074;SDS011;26529;51.530;11.754;2023-01-05T04:15:14;31.42;;;14.75;;
40074;SDS011;26529;51.530;11.754;2023-01-05T04:17:40;34.55;;;15.57;;
40074;SDS011;26529;51.530;11.754;2023-01-05T04:20:09;35.95;;;14.85;;
40074;SDS011;26529;51.530;11.754;2023-01-05T04:22:35;32.45;;;14.77;;
40074;SDS011;26529;51.530;11.754;2023-01-05T04:25:00;30.25;;;13.85;;
40074;SDS011;26529;51.530;11.754;2023-01-05T04:27:28;35.50;;;14.35;;
40074;SDS011;26529;51.530;11.754;2023-01-05T04:29:54;30.38;;;13.23;;
40074;SDS011;26529;51.530;11.754;2023-01-05T04:32:19;29.38;;;13.60;;
40074;SDS011;26529;51.530;11.754;2023-01-05T04:34:46;30.95;;;13.60;;
40074;SDS011;26529;51.530;11.754;2023-01-05T04:37:11;30.02;;;14.00;;
40074;SDS011;26529;51.530;11.754;2023-01-05T04:39:37;29.65;;;13.68;;
40074;SDS011;26529;51.530;11.754;2023-01-05T04:42:03;30.65;;;14.73;;
40074;SDS011;26529;51.530;11.754;2023-01-05T04:44:29;26.98;;;13.63;;
40074;SDS011;26529;51.530;11.754;2023-01-05T04:46:57;30.10;;;13.90;;
40074;SDS011;26529;51.530;11.754;2023-01-05T04:49:22;29.58;;;13.90;;
40074;SDS011;26529;51.530;11.754;2023-01-05T04:51:50;29.90;;;13.82;;
40074;SDS011;26529;51.530;11.754;2023-01-05T04:54:17;26.15;;;12.98;;
40074;SDS011;26529;51.530;11.754;2023-01-05T04:56:44;28.40;;;13.30;;
40074;SDS011;26529;51.530;11.754;2023-01-05T04:59:11;26.00;;;12.18;;
40074;SDS011;26529;51.530;11.754;2023-01-05T05:01:37;27.75;;;13.75;;
40074;SDS011;26529;51.530;11.754;2023-01-05T05:04:03;24.38;;;12.38;;
40074;SDS011;26529;51.530;11.754;2023-01-05T05:06:29;24.33;;;12.70;;
40074;SDS011;26529;51.530;11.754;2023-01-05T05:08:55;24.77;;;11.80;;
40074;SDS011;26529;51.530;11.754;2023-01-05T05:11:22;27.27;;;12.48;;
40074;SDS011;26529;51.530;11.754;2023-01-05T05:13:49;25.17;;;12.93;;
40074;SDS011;26529;51.530;11.754;2023-01-05T05:16:14;27.48;;;12.65;;
40074;SDS011;26529;51.530;11.754;2023-01-05T05:18:43;25.67;;;12.23;;
40074;SDS011;26529;51.530;11.754;2023-01-05T05:21:14;27.67;;;12.82;;
40074;SDS011;26529;51.530;11.754;2023-01-05T05:23:40;26.70;;;12.75;;
40074;SDS011;26529;51.530;11.754;2023-01-05T05:26:05;26.40;;;11.98;;
40074;SDS011;26529;51.530;11.754;2023-01-05T05:28:32;24.45;;;12.20;;
40074;SDS011;26529;51.530;11.754;2023-01-05T05:30:58;25.17;;;11.48;;
40074;SDS011;26529;51.530;11.754;2023-01-05T05:33:23;27.02;;;12.65;;
40074;SDS011;26529;51.530;11.754;2023-01-05T05:35:49;30.10;;;13.02;;
40074;SDS011;26529;51.530;11.754;2023-01-05T05:38:15;21.42;;;10.85;;
40074;SDS011;26529;51.530;11.754;2023-01-05T05:40:40;23.45;;;11.00;;
40074;SDS011;26529;51.530;11.754;2023-01-05T05:43:06;24.77;;;12.27;;
40074;SDS011;26529;51.530;11.754;2023-01-05T05:45:31;24.40;;;11.48;;
40074;SDS011;26529;51.530;11.754;2023-01-05T05:47:57;23.02;;;11.77;;
40074;SDS011;26529;51.530;11.754;2023-01-05T05:50:22;20.63;;;10.73;;
40074;SDS011;26529;51.530;11.754;2023-01-05T05:52:48;26.05;;;11.65;;
40074;SDS011;26529;51.530;11.754;2023-01-05T05:55:14;20.02;;;10.10;;
40074;SDS011;26529;51.530;11.754;2023-01-05T05:57:39;20.85;;;10.88;;
40074;SDS011;26529;51.530;11.754;2023-01-05T06:00:05;26.30;;;11.50;;
40074;SDS011;26529;51.530;11.754;2023-01-05T06:02:38;21.75;;;10.65;;
40074;SDS011;26529;51.530;11.754;2023-01-05T06:05:04;20.73;;;9.65;;
40074;SDS011;26529;51.530;11.754;2023-01-05T06:07:30;19.67;;;10.32;;
40074;SDS011;26529;51.530;11.754;2023-01-05T06:09:55;22.80;;;10.27;;
40074;SDS011;26529;51.530;11.754;2023-01-05T06:12:21;20.35;;;10.82;;
40074;SDS011;26529;51.530;11.754;2023-01-05T06:14:46;21.60;;;10.60;;
40074;SDS011;26529;51.530;11.754;2023-01-05T06:17:11;18.75;;;8.85;;
40074;SDS011;26529;51.530;11.754;2023-01-05T06:19:37;18.60;;;9.52;;
40074;SDS011;26529;51.530;11.754;2023-01-05T06:22:02;20.52;;;10.18;;
40074;SDS011;26529;51.530;11.754;2023-01-05T06:24:28;17.58;;;9.95;;
40074;SDS011;26529;51.530;11.754;2023-01-05T06:26:53;17.70;;;9.13;;
40074;SDS011;26529;51.530;11.754;2023-01-05T06:29:19;21.90;;;9.77;;
40074;SDS011;26529;51.530;11.754;2023-01-05T06:31:44;20.95;;;9.63;;
40074;SDS011;26529;51.530;11.754;2023-01-05T06:34:10;16.52;;;8.73;;
40074;SDS011;26529;51.530;11.754;2023-01-05T06:36:35;22.42;;;10.50;;
40074;SDS011;26529;51.530;11.754;2023-01-05T06:39:01;17.58;;;8.90;;
40074;SDS011;26529;51.530;11.754;2023-01-05T06:41:26;17.35;;;9.35;;
40074;SDS011;26529;51.530;11.754;2023-01-05T06:43:52;15.25;;;8.43;;
40074;SDS011;26529;51.530;11.754;2023-01-05T06:46:17;17.02;;;9.30;;
40074;SDS011;26529;51.530;11.754;2023-01-05T06:48:43;18.83;;;9.60;;
40074;SDS011;26529;51.530;11.754;2023-01-05T06:51:08;19.75;;;9.70;;
40074;SDS011;26529;51.530;11.754;2023-01-05T06:53:33;19.00;;;9.63;;
40074;SDS011;26529;51.530;11.754;2023-01-05T06:55:59;17.40;;;8.77;;
40074;SDS011;26529;51.530;11.754;2023-01-05T06:58:24;16.65;;;8.93;;
40074;SDS011;26529;51.530;11.754;2023-01-05T07:00:52;16.67;;;8.07;;
40074;SDS011;26529;51.530;11.754;2023-01-05T07:03:18;16.45;;;8.75;;
40074;SDS011;26529;51.530;11.754;2023-01-05T07:05:43;18.75;;;8.98;;
40074;SDS011;26529;51.530;11.754;2023-01-05T07:08:09;20.05;;;9.38;;
40074;SDS011;26529;51.530;11.754;2023-01-05T07:10:35;18.33;;;8.70;;
40074;SDS011;26529;51.530;11.754;2023-01-05T07:13:00;17.23;;;7.95;;
40074;SDS011;26529;51.530;11.754;2023-01-05T07:15:26;14.80;;;8.13;;
40074;SDS011;26529;51.530;11.754;2023-01-05T07:17:51;18.00;;;8.18;;
40074;SDS011;26529;51.530;11.754;2023-01-05T07:20:16;16.85;;;8.70;;
40074;SDS011;26529;51.530;11.754;2023-01-05T07:22:42;16.73;;;8.13;;
40074;SDS011;26529;51.530;11.754;2023-01-05T07:25:08;11.73;;;7.22;;
40074;SDS011;26529;51.530;11.754;2023-01-05T07:27:34;17.40;;;8.23;;
40074;SDS011;26529;51.530;11.754;2023-01-05T07:29:59;16.40;;;7.75;;
40074;SDS011;26529;51.530;11.754;2023-01-05T07:32:25;16.15;;;7.28;;
40074;SDS011;26529;51.530;11.754;2023-01-05T07:34:50;18.23;;;8.63;;
40074;SDS011;26529;51.530;11.754;2023-01-05T07:37:15;16.40;;;7.07;;
40074;SDS011;26529;51.530;11.754;2023-01-05T07:39:41;16.23;;;8.32;;
40074;SDS011;26529;51.530;11.754;2023-01-05T07:42:07;15.43;;;7.65;;
40074;SDS011;26529;51.530;11.754;2023-01-05T07:44:34;14.80;;;7.68;;
40074;SDS011;26529;51.530;11.754;2023-01-05T07:47:00;14.93;;;7.20;;
40074;SDS011;26529;51.530;11.754;2023-01-05T07:49:26;14.95;;;7.80;;
40074;SDS011;26529;51.530;11.754;2023-01-05T07:51:51;16.50;;;7.65;;
40074;SDS011;26529;51.530;11.754;2023-01-05T07:54:17;13.63;;;7.18;;
40074;SDS011;26529;51.530;11.754;2023-01-05T07:56:42;15.68;;;7.18;;
40074;SDS011;26529;51.530;11.754;2023-01-05T07:59:07;13.25;;;6.40;;
40074;SDS011;26529;51.530;11.754;2023-01-05T08:01:33;15.13;;;6.72;;
40074;SDS011;26529;51.530;11.754;2023-01-05T08:03:58;15.15;;;6.70;;
40074;SDS011;26529;51.530;11.754;2023-01-05T08:06:24;13.00;;;7.15;;
40074;SDS011;26529;51.530;11.754;2023-01-05T08:08:49;11.80;;;6.20;;
40074;SDS011;26529;51.530;11.754;2023-01-05T08:11:15;13.05;;;6.13;;
40074;SDS011;26529;51.530;11.754;2023-01-05T08:13:42;11.63;;;6.30;;
40074;SDS011;26529;51.530;11.754;2023-01-05T08:16:24;14.60;;;7.45;;
40074;SDS011;26529;51.530;11.754;2023-01-05T08:18:50;12.15;;;6.00;;
40074;SDS011;26529;51.530;11.754;2023-01-05T08:21:16;15.73;;;6.72;;
40074;SDS011;26529;51.530;11.754;2023-01-05T08:23:41;15.10;;;5.93;;
40074;SDS011;26529;51.530;11.754;2023-01-05T08:26:11;12.38;;;6.53;;
40074;SDS011;26529;51.530;11.754;2023-01-05T08:28:38;15.50;;;6.30;;
40074;SDS011;26529;51.530;11.754;2023-01-05T08:31:05;13.00;;;6.35;;
40074;SDS011;26529;51.530;11.754;2023-01-05T08:33:38;11.48;;;6.28;;
40074;SDS011;26529;51.530;11.754;2023-01-05T08:36:12;13.30;;;7.00;;
40074;SDS011;26529;51.530;11.754;2023-01-05T08:38:39;16.33;;;7.00;;
40074;SDS011;26529;51.530;11.754;2023-01-05T08:41:13;11.18;;;6.20;;
40074;SDS011;26529;51.530;11.754;2023-01-05T08:43:49;12.70;;;6.60;;
40074;SDS011;26529;51.530;11.754;2023-01-05T08:46:16;11.15;;;5.65;;
40074;SDS011;26529;51.530;11.754;2023-01-05T08:48:42;11.27;;;5.93;;
40074;SDS011;26529;51.530;11.754;2023-01-05T08:51:07;10.57;;;5.55;;
40074;SDS011;26529;51.530;11.754;2023-01-05T08:53:33;10.68;;;5.50;;
40074;SDS011;26529;51.530;11.754;2023-01-05T08:55:59;13.43;;;6.35;;
40074;SDS011;26529;51.530;11.754;2023-01-05T08:58:25;12.20;;;6.22;;
40074;SDS011;26529;51.530;11.754;2023-01-05T09:00:50;11.45;;;5.53;;
40074;SDS011;26529;51.530;11.754;2023-01-05T09:03:17;10.63;;;5.78;;
40074;SDS011;26529;51.530;11.754;2023-01-05T09:05:43;9.95;;;6.07;;
40074;SDS011;26529;51.530;11.754;2023-01-05T09:08:09;10.90;;;5.70;;
40074;SDS011;26529;51.530;11.754;2023-01-05T09:10:34;9.93;;;5.57;;
40074;SDS011;26529;51.530;11.754;2023-01-05T09:13:00;10.82;;;5.65;;
40074;SDS011;26529;51.530;11.754;2023-01-05T09:15:25;9.82;;;4.85;;
40074;SDS011;26529;51.530;11.754;2023-01-05T09:17:51;11.77;;;5.88;;
40074;SDS011;26529;51.530;11.754;2023-01-05T09:20:16;9.32;;;4.95;;
40074;SDS011;26529;51.530;11.754;2023-01-05T09:22:42;12.77;;;5.70;;
40074;SDS011;26529;51.530;11.754;2023-01-05T09:25:08;10.82;;;5.28;;
40074;SDS011;26529;51.530;11.754;2023-01-05T09:27:34;11.85;;;5.25;;
40074;SDS011;26529;51.530;11.754;2023-01-05T09:30:01;10.35;;;5.28;;
40074;SDS011;26529;51.530;11.754;2023-01-05T09:32:27;10.50;;;5.57;;
40074;SDS011;26529;51.530;11.754;2023-01-05T09:34:52;8.82;;;5.05;;
40074;SDS011;26529;51.530;11.754;2023-01-05T09:37:18;8.80;;;4.93;;
40074;SDS011;26529;51.530;11.754;2023-01-05T09:39:44;9.85;;;4.82;;
40074;SDS011;26529;51.530;11.754;2023-01-05T09:42:11;8.57;;;4.20;;
40074;SDS011;26529;51.530;11.754;2023-01-05T09:44:49;9.02;;;4.47;;
40074;SDS011;26529;51.530;11.754;2023-01-05T09:47:36;10.77;;;4.68;;
40074;SDS011;26529;51.530;11.754;2023-01-05T09:50:04;16.80;;;4.97;;
40074;SDS011;26529;51.530;11.754;2023-01-05T09:52:31;9.63;;;4.28;;
40074;SDS011;26529;51.530;11.754;2023-01-05T09:54:58;12.45;;;5.05;;
40074;SDS011;26529;51.530;11.754;2023-01-05T09:57:24;22.67;;;5.78;;
40074;SDS011;26529;51.530;11.754;2023-01-05T09:59:52;12.82;;;4.95;;
40074;SDS011;26529;51.530;11.754;2023-01-05T10:02:31;10.57;;;4.35;;
40074;SDS011;26529;51.530;11.754;2023-01-05T10:05:15;9.77;;;3.92;;
40074;SDS011;26529;51.530;11.754;2023-01-05T10:13:31;9.10;;;4.00;;
40074;SDS011;26529;51.530;11.754;2023-01-05T10:16:01;12.10;;;4.40;;
40074;SDS011;26529;51.530;11.754;2023-01-05T10:18:27;12.68;;;5.20;;
40074;SDS011;26529;51.530;11.754;2023-01-05T10:23:48;13.77;;;6.25;;
40074;SDS011;26529;51.530;11.754;2023-01-05T10:26:43;13.63;;;6.78;;
40074;SDS011;26529;51.530;11.754;2023-01-05T10:29:23;12.30;;;6.55;;
40074;SDS011;26529;51.530;11.754;2023-01-05T10:34:58;21.70;;;8.38;;
40074;SDS011;26529;51.530;11.754;2023-01-05T10:40:22;21.80;;;9.20;;
40074;SDS011;26529;51.530;11.754;2023-01-05T10:46:09;22.27;;;9.68;;
40074;SDS011;26529;51.530;11.754;2023-01-05T10:48:37;19.60;;;8.98;;
40074;SDS011;26529;51.530;11.754;2023-01-05T10:51:04;34.08;;;10.98;;
40074;SDS011;26529;51.530;11.754;2023-01-05T10:53:33;21.52;;;10.02;;
40074;SDS011;26529;51.530;11.754;2023-01-05T10:56:02;28.88;;;9.88;;
40074;SDS011;26529;51.530;11.754;2023-01-05T10:58:34;23.70;;;9.05;;
40074;SDS011;26529;51.530;11.754;2023-01-05T11:01:16;25.17;;;9.80;;
40074;SDS011;26529;51.530;11.754;2023-01-05T11:03:47;21.20;;;8.68;;
40074;SDS011;26529;51.530;11.754;2023-01-05T11:06:25;26.30;;;9.35;;
40074;SDS011;26529;51.530;11.754;2023-01-05T11:08:54;20.25;;;8.93;;
40074;SDS011;26529;51.530;11.754;2023-01-05T11:11:28;17.25;;;8.82;;
40074;SDS011;26529;51.530;11.754;2023-01-05T11:13:54;17.75;;;8.80;;
40074;SDS011;26529;51.530;11.754;2023-01-05T11:16:22;25.83;;;9.73;;
40074;SDS011;26529;51.530;11.754;2023-01-05T11:18:52;21.75;;;9.65;;
40074;SDS011;26529;51.530;11.754;2023-01-05T11:21:24;33.78;;;11.23;;
40074;SDS011;26529;51.530;11.754;2023-01-05T11:23:59;25.48;;;10.32;;
40074;SDS011;26529;51.530;11.754;2023-01-05T11:26:28;29.83;;;11.20;;
40074;SDS011;26529;51.530;11.754;2023-01-05T11:29:00;23.83;;;10.60;;
40074;SDS011;26529;51.530;11.754;2023-01-05T11:36:49;25.92;;;11.52;;
40074;SDS011;26529;51.530;11.754;2023-01-05T11:39:24;26.08;;;10.32;;
40074;SDS011;26529;51.530;11.754;2023-01-05T11:44:58;26.88;;;10.77;;
40074;SDS011;26529;51.530;11.754;2023-01-05T11:47:36;24.02;;;10.00;;
40074;SDS011;26529;51.530;11.754;2023-01-05T11:56:13;27.67;;;10.65;;
40074;SDS011;26529;51.530;11.754;2023-01-05T11:58:45;23.10;;;8.63;;
40074;SDS011;26529;51.530;11.754;2023-01-05T12:01:19;28.38;;;9.77;;
40074;SDS011;26529;51.530;11.754;2023-01-05T12:03:57;19.17;;;9.45;;
40074;SDS011;26529;51.530;11.754;2023-01-05T12:06:34;28.05;;;10.52;;
40074;SDS011;26529;51.530;11.754;2023-01-05T12:12:03;24.27;;;9.35;;
40074;SDS011;26529;51.530;11.754;2023-01-05T12:14:35;21.73;;;8.75;;
40074;SDS011;26529;51.530;11.754;2023-01-05T12:17:14;22.23;;;8.98;;
40074;SDS011;26529;51.530;11.754;2023-01-05T12:33:26;18.90;;;8.15;;
40074;SDS011;26529;51.530;11.754;2023-01-05T12:41:50;22.63;;;8.98;;
40074;SDS011;26529;51.530;11.754;2023-01-05T12:44:39;19.58;;;8.45;;
40074;SDS011;26529;51.530;11.754;2023-01-05T12:47:21;17.75;;;8.40;;
40074;SDS011;26529;51.530;11.754;2023-01-05T12:52:47;23.52;;;8.43;;
40074;SDS011;26529;51.530;11.754;2023-01-05T12:55:17;18.92;;;7.07;;
40074;SDS011;26529;51.530;11.754;2023-01-05T12:57:49;25.80;;;8.63;;
40074;SDS011;26529;51.530;11.754;2023-01-05T13:00:21;17.52;;;7.38;;
40074;SDS011;26529;51.530;11.754;2023-01-05T13:02:56;15.90;;;6.80;;
40074;SDS011;26529;51.530;11.754;2023-01-05T13:05:29;17.88;;;7.90;;
40074;SDS011;26529;51.530;11.754;2023-01-05T13:18:28;22.30;;;7.80;;
40074;SDS011;26529;51.530;11.754;2023-01-05T13:20:57;18.83;;;7.70;;
40074;SDS011;26529;51.530;11.754;2023-01-05T13:23:26;18.25;;;6.57;;
40074;SDS011;26529;51.530;11.754;2023-01-05T13:25:58;17.63;;;6.57;;
40074;SDS011;26529;51.530;11.754;2023-01-05T13:28:28;17.33;;;6.45;;
40074;SDS011;26529;51.530;11.754;2023-01-05T13:36:44;20.33;;;7.25;;
40074;SDS011;26529;51.530;11.754;2023-01-05T13:39:28;19.15;;;7.20;;
40074;SDS011;26529;51.530;11.754;2023-01-05T13:45:01;17.95;;;7.55;;
40074;SDS011;26529;51.530;11.754;2023-01-05T13:47:50;15.38;;;6.57;;
40074;SDS011;26529;51.530;11.754;2023-01-05T13:50:26;18.38;;;7.10;;
40074;SDS011;26529;51.530;11.754;2023-01-05T13:53:13;14.50;;;6.50;;
40074;SDS011;26529;51.530;11.754;2023-01-05T13:58:40;16.63;;;6.68;;
40074;SDS011;26529;51.530;11.754;2023-01-05T14:01:32;16.42;;;6.53;;
40074;SDS011;26529;51.530;11.754;2023-01-05T14:04:00;15.65;;;5.90;;
40074;SDS011;26529;51.530;11.754;2023-01-05T14:06:27;13.15;;;6.10;;
40074;SDS011;26529;51.530;11.754;2023-01-05T14:11:27;16.80;;;7.40;;
40074;SDS011;26529;51.530;11.754;2023-01-05T14:14:00;17.10;;;6.78;;
40074;SDS011;26529;51.530;11.754;2023-01-05T14:24:39;19.20;;;6.32;;
40074;SDS011;26529;51.530;11.754;2023-01-05T14:27:13;15.32;;;6.70;;
40074;SDS011;26529;51.530;11.754;2023-01-05T14:32:09;15.00;;;6.32;;
40074;SDS011;26529;51.530;11.754;2023-01-05T14:34:43;13.75;;;6.30;;
40074;SDS011;26529;51.530;11.754;2023-01-05T14:37:18;14.95;;;5.53;;
40074;SDS011;26529;51.530;11.754;2023-01-05T14:39:47;15.73;;;6.10;;
40074;SDS011;26529;51.530;11.754;2023-01-05T14:42:18;19.05;;;6.20;;
40074;SDS011;26529;51.530;11.754;2023-01-05T14:44:55;14.13;;;6.23;;
40074;SDS011;26529;51.530;11.754;2023-01-05T14:47:37;15.70;;;6.40;;
40074;SDS011;26529;51.530;11.754;2023-01-05T14:55:26;14.90;;;5.65;;
40074;SDS011;26529;51.530;11.754;2023-01-05T14:57:54;12.27;;;4.88;;
40074;SDS011;26529;51.530;11.754;2023-01-05T15:01:27;12.48;;;5.07;;
40074;SDS011;26529;51.530;11.754;2023-01-05T15:03:31;12.85;;;5.22;;
40074;SDS011;26529;51.530;11.754;2023-01-05T15:06:05;17.15;;;5.53;;
40074;SDS011;26529;51.530;11.754;2023-01-05T15:14:02;14.73;;;5.43;;
40074;SDS011;26529;51.530;11.754;2023-01-05T15:33:43;9.38;;;5.28;;
40074;SDS011;26529;51.530;11.754;2023-01-05T15:36:37;11.43;;;5.07;;
40074;SDS011;26529;51.530;11.754;2023-01-05T15:41:54;16.08;;;5.22;;
40074;SDS011;26529;51.530;11.754;2023-01-05T15:44:21;11.73;;;4.68;;
40074;SDS011;26529;51.530;11.754;2023-01-05T15:46:55;12.50;;;5.07;;
40074;SDS011;26529;51.530;11.754;2023-01-05T15:49:22;9.63;;;4.43;;
40074;SDS011;26529;51.530;11.754;2023-01-05T15:51:52;10.80;;;4.53;;
40074;SDS011;26529;51.530;11.754;2023-01-05T15:54:20;13.82;;;6.03;;
40074;SDS011;26529;51.530;11.754;2023-01-05T15:56:48;9.60;;;4.53;;
40074;SDS011;26529;51.530;11.754;2023-01-05T15:59:20;13.02;;;5.38;;
40074;SDS011;26529;51.530;11.754;2023-01-05T16:01:54;11.48;;;4.72;;
40074;SDS011;26529;51.530;11.754;2023-01-05T16:04:20;10.68;;;3.97;;
40074;SDS011;26529;51.530;11.754;2023-01-05T16:06:46;11.65;;;4.47;;
40074;SDS011;26529;51.530;11.754;2023-01-05T16:09:19;9.57;;;4.65;;
40074;SDS011;26529;51.530;11.754;2023-01-05T16:11:48;10.40;;;4.32;;
40074;SDS011;26529;51.530;11.754;2023-01-05T16:14:22;10.60;;;4.50;;
40074;SDS011;26529;51.530;11.754;2023-01-05T16:17:26;15.48;;;4.88;;
40074;SDS011;26529;51.530;11.754;2023-01-05T16:19:55;14.70;;;5.13;;
40074;SDS011;26529;51.530;11.754;2023-01-05T16:25:18;12.95;;;4.63;;
40074;SDS011;26529;51.530;11.754;2023-01-05T16:27:48;13.15;;;4.57;;
40074;SDS011;26529;51.530;11.754;2023-01-05T16:30:37;11.77;;;4.00;;
40074;SDS011;26529;51.530;11.754;2023-01-05T16:33:05;12.10;;;4.65;;
40074;SDS011;26529;51.530;11.754;2023-01-05T16:35:49;12.07;;;4.47;;
40074;SDS011;26529;51.530;11.754;2023-01-05T16:53:34;29.55;;;10.07;;
40074;SDS011;26529;51.530;11.754;2023-01-05T16:56:21;22.08;;;8.63;;
40074;SDS011;26529;51.530;11.754;2023-01-05T16:59:29;21.95;;;9.30;;
40074;SDS011;26529;51.530;11.754;2023-01-05T17:01:56;24.52;;;10.13;;
40074;SDS011;26529;51.530;11.754;2023-01-05T17:04:22;25.73;;;10.18;;
40074;SDS011;26529;51.530;11.754;2023-01-05T17:06:48;25.95;;;10.60;;
40074;SDS011;26529;51.530;11.754;2023-01-05T17:09:22;32.60;;;11.32;;
40074;SDS011;26529;51.530;11.754;2023-01-05T17:11:51;29.10;;;10.05;;
40074;SDS011;26529;51.530;11.754;2023-01-05T17:14:17;31.25;;;10.07;;
40074;SDS011;26529;51.530;11.754;2023-01-05T17:16:43;31.58;;;9.75;;